Time;durP1;ratioP1;P1;durP2;ratioP2;P2;SDS_P1;SDS_P2;PMS_P1;PMS_P2;Temp;Humidity;BMP_temperature;BMP_pressure;BME280_temperature;BME280_humidity;BME280_pressure;Samples;Min_cycle;Max_cycle;Signal;HPM_P1;HPM_P2
2021/05/11 00:00:59;;;;;;;10.70;4.03;;;;;;;16.51;52.43;100288.20;1664719;85;25401;-74
2021/05/11 00:03:25;;;;;;;9.65;4.35;;;;;;;16.46;52.53;100284.85;1663827;85;33174;-74
2021/05/11 00:05:51;;;;;;;10.18;3.80;;;;;;;16.41;52.64;100282.02;1665043;85;25841;-73
2021/05/11 00:08:17;;;;;;;11.28;4.08;;;;;;;16.37;52.77;100279.50;1664484;85;33315;-73
2021/05/11 00:10:42;;;;;;;10.53;4.28;;;;;;;16.36;52.87;100277.34;1661228;85;31364;-73
2021/05/11 00:13:08;;;;;;;7.70;4.00;;;;;;;16.33;53.15;100276.95;1663624;85;34958;-73
2021/05/11 00:15:34;;;;;;;9.30;4.40;;;;;;;16.29;53.04;100280.52;1664697;85;32526;-73
2021/05/11 00:18:00;;;;;;;12.35;4.35;;;;;;;16.25;53.10;100287.20;1659550;85;26448;-73
2021/05/11 00:20:26;;;;;;;7.40;4.15;;;;;;;16.23;53.15;100287.09;1659818;85;33252;-73
2021/05/11 00:22:52;;;;;;;9.70;4.37;;;;;;;16.17;53.21;100285.58;1664799;85;31388;-73
2021/05/11 00:25:17;;;;;;;11.05;4.87;;;;;;;16.09;53.38;100274.42;1664885;85;34919;-73
2021/05/11 00:27:43;;;;;;;8.75;4.40;;;;;;;16.10;53.44;100287.94;1662947;85;32611;-74
2021/05/11 00:30:11;;;;;;;7.75;4.50;;;;;;;16.06;53.53;100284.87;1665790;85;25949;-74
2021/05/11 00:32:37;;;;;;;9.65;4.87;;;;;;;16.04;53.64;100291.36;1664924;85;26499;-74
2021/05/11 00:35:05;;;;;;;8.43;4.35;;;;;;;16.01;53.73;100287.81;1665694;85;25340;-73
2021/05/11 00:37:30;;;;;;;7.92;4.17;;;;;;;15.95;53.84;100282.33;1663968;85;25862;-73
2021/05/11 00:39:56;;;;;;;7.92;4.15;;;;;;;15.91;53.90;100283.76;1660215;85;32536;-73
2021/05/11 00:42:22;;;;;;;8.20;4.12;;;;;;;15.88;54.02;100289.44;1661982;85;25780;-73
2021/05/11 00:44:48;;;;;;;6.70;4.22;;;;;;;15.86;54.07;100280.91;1663812;85;33188;-73
2021/05/11 00:47:14;;;;;;;9.83;4.30;;;;;;;15.80;54.35;100274.33;1663961;85;31297;-73
2021/05/11 00:49:39;;;;;;;9.78;4.67;;;;;;;15.80;54.35;100274.33;1658900;85;34852;-72
2021/05/11 00:52:07;;;;;;;12.60;4.67;;;;;;;15.76;54.35;100276.02;1635187;86;32611;-72
2021/05/11 00:54:34;;;;;;;12.80;4.85;;;;;;;15.72;54.46;100277.45;1664738;85;26559;-72
2021/05/11 00:57:03;;;;;;;10.28;5.05;;;;;;;15.68;54.61;100273.58;1663777;85;25306;-72
2021/05/11 00:59:30;;;;;;;7.72;4.40;;;;;;;15.67;54.67;100278.53;1663518;85;25766;-72
2021/05/11 01:01:58;;;;;;;8.05;4.42;;;;;;;15.65;54.79;100279.73;1636793;86;25801;-72
2021/05/11 01:04:25;;;;;;;13.22;4.78;;;;;;;15.66;54.90;100280.03;1661586;85;25803;-72
2021/05/11 01:06:53;;;;;;;9.20;4.42;;;;;;;15.63;54.90;100281.75;1658643;85;25813;-72
2021/05/11 01:09:21;;;;;;;9.15;4.72;;;;;;;15.59;54.99;100276.08;1661148;85;25817;-72
2021/05/11 01:11:46;;;;;;;8.48;4.83;;;;;;;15.53;55.10;100269.78;1663245;85;25762;-73
2021/05/11 01:14:13;;;;;;;8.43;4.40;;;;;;;15.50;55.26;100266.75;1662234;85;34911;-73
2021/05/11 01:16:40;;;;;;;8.60;4.87;;;;;;;15.47;55.36;100269.78;1661929;85;25533;-73
2021/05/11 01:24:19;;;;;;;8.70;4.70;;;;;;;15.39;55.63;100264.19;1660124;85;25737;-74
2021/05/11 01:26:46;;;;;;;10.23;4.60;;;;;;;15.37;55.71;100264.88;1663737;85;25796;-74
2021/05/11 01:29:48;;;;;;;9.23;4.20;;;;;;;15.37;55.74;100268.03;1663857;84;25342;-74
2021/05/11 01:56:13;;;;;;;11.12;4.65;;;;;;;15.08;56.58;100258.91;1633887;86;25372;-73
2021/05/11 02:23:09;;;;;;;9.25;4.87;;;;;;;14.68;57.72;100250.05;1616715;87;25948;-72
2021/05/11 02:25:35;;;;;;;10.08;4.55;;;;;;;14.64;57.79;100250.91;1610806;88;25829;-72
2021/05/11 02:28:00;;;;;;;9.90;4.83;;;;;;;14.63;57.92;100247.18;1620405;87;33313;-72
2021/05/11 02:30:26;;;;;;;9.30;5.05;;;;;;;14.58;57.89;100249.06;1609824;88;31480;-72
2021/05/11 02:32:52;;;;;;;11.65;5.12;;;;;;;14.48;58.04;100241.19;1620176;87;34835;-72
2021/05/11 02:35:20;;;;;;;8.80;5.35;;;;;;;14.54;58.10;100253.58;1610272;88;33142;-72
2021/05/11 02:37:46;;;;;;;14.75;7.70;;;;;;;14.52;58.24;100252.95;1621606;87;25764;-72
2021/05/11 02:40:15;;;;;;;11.28;7.80;;;;;;;14.48;58.24;100253.83;1609533;88;25790;-72
2021/05/11 02:42:44;;;;;;;12.53;7.17;;;;;;;14.44;58.24;100253.92;1621704;87;25875;-72
2021/05/11 02:45:12;;;;;;;14.40;7.40;;;;;;;14.42;58.31;100251.98;1621896;87;25783;-72
2021/05/11 02:47:49;;;;;;;13.50;6.78;;;;;;;14.37;58.42;100251.23;1611406;88;25846;-72
2021/05/11 02:50:19;;;;;;;11.33;6.67;;;;;;;14.36;58.46;100252.75;1663533;85;26744;-73
2021/05/11 02:52:46;;;;;;;11.60;6.40;;;;;;;14.35;58.54;100255.05;1663936;85;25767;-74
2021/05/11 02:55:14;;;;;;;12.40;7.08;;;;;;;14.33;58.65;100251.31;1632246;86;25767;-73
2021/05/11 02:57:40;;;;;;;11.93;6.47;;;;;;;14.30;58.68;100243.81;1661952;85;25808;-73
2021/05/11 03:00:08;;;;;;;8.95;5.97;;;;;;;14.28;58.70;100247.13;1659955;85;25716;-73
2021/05/11 03:02:34;;;;;;;10.15;6.42;;;;;;;14.28;58.87;100252.90;1662461;85;25831;-73
2021/05/11 03:05:00;;;;;;;11.35;6.37;;;;;;;14.26;58.83;100253.58;1662941;85;33256;-73
2021/05/11 03:07:26;;;;;;;12.10;5.87;;;;;;;14.25;58.85;100255.91;1663391;84;25455;-73
2021/05/11 03:09:53;;;;;;;12.23;6.10;;;;;;;14.21;58.91;100254.15;1665188;85;34906;-73
2021/05/11 03:12:20;;;;;;;14.80;5.95;;;;;;;14.23;59.02;100261.86;1662097;85;25374;-74
2021/05/11 03:14:46;;;;;;;9.38;6.12;;;;;;;14.20;59.03;100258.59;1664574;85;25707;-74
2021/05/11 03:17:13;;;;;;;8.53;6.10;;;;;;;14.20;59.06;100260.42;1665081;85;25761;-74
2021/05/11 03:19:39;;;;;;;11.22;6.15;;;;;;;14.19;59.11;100262.75;1664133;85;25311;-74
2021/05/11 03:22:04;;;;;;;11.78;6.17;;;;;;;14.18;59.20;100261.91;1665007;85;35488;-74
2021/05/11 03:24:30;;;;;;;10.00;6.20;;;;;;;14.16;59.30;100265.77;1662097;85;33867;-74
2021/05/11 03:26:56;;;;;;;12.73;5.60;;;;;;;14.17;59.33;100268.70;1662756;85;25878;-74
2021/05/11 03:29:22;;;;;;;12.25;6.55;;;;;;;14.15;59.45;100266.75;1662487;84;33153;-74
2021/05/11 03:31:48;;;;;;;10.90;5.72;;;;;;;14.14;59.46;100265.13;1663791;85;26730;-73
2021/05/11 03:34:14;;;;;;;11.45;5.45;;;;;;;14.04;59.43;100235.73;1664344;84;35535;-73
2021/05/11 03:36:40;;;;;;;11.85;6.30;;;;;;;14.04;59.43;100235.73;1663080;85;33164;-73
2021/05/11 03:39:07;;;;;;;9.20;5.55;;;;;;;14.19;59.66;100256.18;1662517;85;25700;-73
2021/05/11 03:41:39;;;;;;;14.73;6.03;;;;;;;14.23;59.71;100259.23;1663921;85;25919;-73
2021/05/11 03:44:13;;;;;;;10.30;6.12;;;;;;;14.24;59.70;100251.64;1664626;85;25370;-73
2021/05/11 03:46:37;;;;;;;16.48;6.33;;;;;;;14.25;59.74;100255.41;1664704;85;25735;-73
2021/05/11 03:49:05;;;;;;;15.68;6.30;;;;;;;14.26;59.88;100257.02;1661699;85;25933;-73
2021/05/11 03:51:32;;;;;;;12.13;6.62;;;;;;;14.27;59.86;100261.77;1650714;85;25942;-74
2021/05/11 03:53:59;;;;;;;11.40;6.30;;;;;;;14.28;59.91;100259.47;1650734;85;26272;-73
2021/05/11 03:56:27;;;;;;;15.32;6.37;;;;;;;14.29;59.98;100254.00;1650854;85;25312;-73
2021/05/11 03:58:53;;;;;;;9.40;6.00;;;;;;;14.32;59.96;100260.22;1662571;85;26459;-74
2021/05/11 04:01:19;;;;;;;12.58;6.53;;;;;;;14.38;60.04;100258.64;1663087;85;26307;-74
2021/05/11 04:03:45;;;;;;;13.88;6.62;;;;;;;14.41;60.06;100260.38;1664752;85;25644;-74
2021/05/11 04:06:11;;;;;;;13.48;6.87;;;;;;;14.46;60.30;100255.86;1662271;85;25392;-74
2021/05/11 04:11:18;;;;;;;16.12;5.78;;;;;;;14.53;60.08;100255.92;1665182;85;25387;-74
2021/05/11 04:16:21;;;;;;;13.85;7.08;;;;;;;14.58;60.19;100252.20;1663828;85;25771;-74
2021/05/11 04:18:42;;;;;;;13.43;6.45;;;;;;;14.62;60.13;100258.21;1664456;85;25886;-74
2021/05/11 04:21:08;;;;;;;13.28;7.00;;;;;;;14.67;60.16;100258.92;1624264;86;31326;-74
2021/05/11 04:23:34;;;;;;;11.73;7.03;;;;;;;14.73;60.20;100260.80;1663154;85;35510;-74
2021/05/11 04:26:00;;;;;;;15.20;6.42;;;;;;;14.83;59.92;100252.02;1664909;85;32472;-74
2021/05/11 04:28:26;;;;;;;11.45;6.62;;;;;;;14.83;59.92;100252.02;1663296;85;25727;-73
2021/05/11 04:30:52;;;;;;;13.03;5.92;;;;;;;14.88;59.88;100256.20;1662240;85;25839;-73
2021/05/11 04:33:17;;;;;;;17.57;7.17;;;;;;;14.93;59.75;100256.94;1665090;85;31401;-73
2021/05/11 04:35:43;;;;;;;11.25;6.58;;;;;;;14.99;59.72;100252.70;1663520;85;34951;-73
2021/05/11 04:38:09;;;;;;;10.23;6.50;;;;;;;15.03;59.72;100251.30;1663993;84;32483;-74
2021/05/11 04:40:35;;;;;;;12.85;5.83;;;;;;;15.08;59.57;100256.27;1662741;85;26467;-74
2021/05/11 04:43:00;;;;;;;17.02;6.60;;;;;;;15.15;59.57;100263.41;1663793;85;33116;-73
2021/05/11 04:45:31;;;;;;;12.80;5.92;;;;;;;15.22;59.47;100260.27;1665097;85;31281;-73
2021/05/11 04:47:54;;;;;;;15.48;6.62;;;;;;;15.28;59.38;100266.09;1650880;85;25803;-74
2021/05/11 04:50:23;;;;;;;12.98;6.40;;;;;;;15.34;59.32;100262.66;1661190;85;32641;-74
2021/05/11 04:52:49;;;;;;;17.55;6.28;;;;;;;15.42;59.23;100260.34;1662920;85;25862;-74
2021/05/11 04:55:17;;;;;;;11.93;6.47;;;;;;;15.50;59.13;100267.55;1663842;85;25784;-74
2021/05/11 04:57:44;;;;;;;10.85;6.30;;;;;;;15.57;59.08;100268.88;1663585;85;25834;-74
2021/05/11 05:00:13;;;;;;;11.60;6.45;;;;;;;15.63;58.92;100272.53;1664256;85;25892;-74
2021/05/11 05:02:44;;;;;;;17.55;6.40;;;;;;;15.69;58.80;100268.63;1662342;85;25722;-74
2021/05/11 05:05:11;;;;;;;10.75;6.17;;;;;;;15.76;58.57;100275.22;1663409;85;25655;-74
2021/05/11 05:07:38;;;;;;;8.83;5.72;;;;;;;15.84;58.57;100264.99;1662651;85;25795;-74
2021/05/11 05:10:06;;;;;;;13.65;5.65;;;;;;;15.90;58.41;100266.81;1665146;85;25363;-72
2021/05/11 05:12:33;;;;;;;10.65;5.55;;;;;;;15.96;58.38;100268.16;1664203;85;25714;-73
2021/05/11 05:14:59;;;;;;;15.55;7.10;;;;;;;16.06;58.09;100266.41;1633961;86;25810;-73
2021/05/11 05:17:25;;;;;;;14.30;5.92;;;;;;;16.12;57.92;100265.62;1663722;84;25842;-73
2021/05/11 05:19:51;;;;;;;12.55;6.60;;;;;;;16.17;57.78;100261.84;1664109;84;33642;-73
2021/05/11 05:22:17;;;;;;;13.40;6.10;;;;;;;16.24;57.72;100263.17;1660055;85;31267;-73
2021/05/11 05:24:52;;;;;;;12.13;5.80;;;;;;;16.32;57.51;100264.80;1662366;85;25957;-73
2021/05/11 05:27:23;;;;;;;10.23;5.97;;;;;;;16.38;57.45;100261.33;1658581;85;25347;-74
2021/05/11 05:29:48;;;;;;;12.15;6.28;;;;;;;16.46;57.04;100257.66;1660937;84;25774;-74
2021/05/11 05:32:15;;;;;;;16.52;6.40;;;;;;;16.52;56.99;100258.16;1661596;85;25371;-73
2021/05/11 05:34:42;;;;;;;11.15;6.72;;;;;;;16.58;56.83;100257.31;1657058;85;25914;-74
2021/05/11 05:37:09;;;;;;;15.70;5.90;;;;;;;16.64;56.59;100253.84;1662910;85;25801;-74
2021/05/11 05:42:05;;;;;;;10.48;5.75;;;;;;;16.78;56.45;100256.00;1663706;85;25694;-74
2021/05/11 05:44:31;;;;;;;16.23;6.00;;;;;;;16.85;56.23;100251.48;1660272;85;25500;-74
2021/05/11 05:46:57;;;;;;;16.62;6.37;;;;;;;16.91;55.77;100251.95;1650883;85;25383;-74
2021/05/11 05:49:26;;;;;;;13.05;5.50;;;;;;;16.98;55.78;100253.27;1663033;85;34929;-74
2021/05/11 05:51:51;;;;;;;16.52;6.67;;;;;;;17.06;55.70;100253.03;1665193;85;25781;-74
2021/05/11 05:54:17;;;;;;;17.07;6.08;;;;;;;17.13;55.27;100252.47;1660696;85;25980;-74
2021/05/11 05:56:43;;;;;;;10.00;5.80;;;;;;;17.17;55.17;100257.65;1663422;85;25377;-74
2021/05/11 05:59:09;;;;;;;12.90;5.33;;;;;;;17.24;54.96;100253.64;1661963;85;31377;-74
2021/05/11 06:01:35;;;;;;;13.45;5.87;;;;;;;17.29;54.76;100257.78;1661364;85;34826;-74
2021/05/11 06:04:12;;;;;;;18.42;5.28;;;;;;;17.36;54.59;100253.80;1661844;85;25716;-74
2021/05/11 06:06:39;;;;;;;9.48;5.12;;;;;;;17.42;54.27;100252.94;1652212;85;26533;-74
2021/05/11 06:09:16;;;;;;;9.70;4.62;;;;;;;17.49;54.49;100249.77;1650731;85;25768;-72
2021/05/11 06:11:48;;;;;;;18.75;5.25;;;;;;;17.60;54.52;100252.23;1651441;85;25416;-72
2021/05/11 06:14:24;;;;;;;12.47;5.03;;;;;;;17.70;53.99;100248.06;1651030;85;25361;-72
2021/05/11 06:19:29;;;;;;;12.30;5.00;;;;;;;17.86;53.99;100258.66;1651602;85;26486;-72
2021/05/11 06:21:54;;;;;;;16.62;5.20;;;;;;;17.91;53.73;100244.28;1651573;85;25761;-74
2021/05/11 06:24:20;;;;;;;11.15;5.40;;;;;;;17.95;53.35;100238.88;1651991;85;31301;-73
2021/05/11 06:26:46;;;;;;;12.70;6.25;;;;;;;18.01;53.16;100234.55;1650390;85;34954;-73
2021/05/11 06:29:14;;;;;;;13.38;5.30;;;;;;;18.05;52.97;100231.75;1661017;85;25541;-73
2021/05/11 06:31:40;;;;;;;15.43;5.55;;;;;;;18.12;52.71;100225.90;1663820;85;25701;-73
2021/05/11 06:34:08;;;;;;;8.80;5.08;;;;;;;18.18;52.77;100228.99;1658474;85;33698;-72
2021/05/11 06:36:33;;;;;;;14.30;5.37;;;;;;;18.24;52.65;100227.83;1659846;85;25780;-72
2021/05/11 06:39:05;;;;;;;11.45;5.17;;;;;;;18.32;52.41;100232.31;1660197;85;34868;-73
2021/05/11 06:41:31;;;;;;;18.55;4.85;;;;;;;18.41;52.79;100223.56;1648208;85;25611;-73
2021/05/11 06:44:03;;;;;;;14.28;4.65;;;;;;;18.55;52.42;100230.85;1662268;85;25793;-73
2021/05/11 06:54:38;;;;;;;14.75;5.70;;;;;;;18.89;52.01;100223.37;1662813;85;25745;-73
2021/05/11 06:57:07;;;;;;;10.63;5.40;;;;;;;19.02;51.84;100220.56;1663355;85;25731;-74
2021/05/11 06:59:33;;;;;;;9.58;4.20;;;;;;;19.10;51.38;100220.73;1662040;85;25964;-74
2021/05/11 07:02:02;;;;;;;11.25;4.53;;;;;;;19.14;50.86;100220.08;1642635;85;31830;-73
2021/05/11 07:04:28;;;;;;;10.75;4.97;;;;;;;19.19;50.74;100211.46;1650924;85;25838;-74
2021/05/11 07:06:55;;;;;;;9.95;4.37;;;;;;;19.12;51.00;100190.86;1651769;85;25815;-74
2021/05/11 07:09:35;;;;;;;12.00;4.95;;;;;;;19.34;50.90;100210.52;1652431;85;26109;-73
2021/05/11 07:14:20;;;;;;;13.90;4.10;;;;;;;19.49;50.01;100200.30;1651597;85;25373;-73
2021/05/11 07:16:46;;;;;;;10.65;4.17;;;;;;;19.58;50.12;100196.80;1652242;85;34941;-72
2021/05/11 07:19:12;;;;;;;6.12;3.52;;;;;;;19.65;49.96;100200.16;1662474;85;25940;-73
2021/05/11 07:21:37;;;;;;;10.00;4.62;;;;;;;19.76;49.84;100201.77;1662159;85;25734;-73
2021/05/11 07:24:05;;;;;;;8.80;4.33;;;;;;;19.83;49.51;100201.92;1664816;85;33163;-73
2021/05/11 07:26:31;;;;;;;10.10;4.40;;;;;;;19.95;49.77;100202.75;1665412;84;25661;-74
2021/05/11 07:29:09;;;;;;;7.17;3.20;;;;;;;20.04;49.18;100190.46;1664906;85;25846;-74
2021/05/11 07:31:32;;;;;;;15.05;4.03;;;;;;;20.13;49.45;100193.04;1630746;86;25763;-74
2021/05/11 07:33:59;;;;;;;11.05;4.00;;;;;;;20.27;48.27;100193.60;1663020;85;26201;-74
2021/05/11 07:36:25;;;;;;;9.50;3.50;;;;;;;20.32;47.88;100198.50;1635026;86;25374;-73
2021/05/11 07:38:52;;;;;;;10.18;4.47;;;;;;;20.38;48.66;100198.11;1665739;85;25384;-73
2021/05/11 07:41:19;;;;;;;7.40;3.52;;;;;;;20.47;47.86;100202.01;1661734;85;25726;-73
2021/05/11 07:43:51;;;;;;;12.53;4.60;;;;;;;20.51;47.71;100195.70;1658296;85;25719;-74
2021/05/11 07:46:43;;;;;;;8.68;3.90;;;;;;;20.59;48.24;100196.17;1658675;85;26565;-74
2021/05/11 08:04:36;;;;;;;8.88;3.92;;;;;;;21.13;46.02;100191.07;1634186;86;31477;-74
2021/05/11 08:17:40;;;;;;;11.85;3.87;;;;;;;21.40;45.87;100196.09;1664886;85;25747;-74
2021/05/11 08:28:21;;;;;;;9.70;3.90;;;;;;;21.73;45.25;100176.66;1665023;84;25368;-73
2021/05/11 08:30:46;;;;;;;12.33;3.02;;;;;;;21.84;45.62;100174.16;1666754;85;31287;-73
2021/05/11 08:33:12;;;;;;;8.88;3.85;;;;;;;21.93;45.35;100174.84;1663697;85;25840;-73
2021/05/11 08:35:38;;;;;;;12.15;3.45;;;;;;;22.04;45.28;100178.42;1642096;85;25360;-74
2021/05/11 08:38:04;;;;;;;16.07;3.58;;;;;;;22.17;45.32;100175.95;1663773;85;26175;-74
2021/05/11 08:40:31;;;;;;;13.32;4.40;;;;;;;22.29;44.53;100170.03;1665021;85;33391;-75
2021/05/11 08:43:00;;;;;;;9.23;3.60;;;;;;;22.38;44.17;100175.72;1663446;85;25352;-75
2021/05/11 08:45:24;;;;;;;13.30;3.60;;;;;;;22.45;44.58;100170.99;1649922;85;25885;-74
2021/05/11 08:47:52;;;;;;;14.58;3.95;;;;;;;22.54;44.06;100170.06;1635984;86;26000;-74
2021/05/11 08:50:32;;;;;;;13.53;3.37;;;;;;;22.61;43.55;100170.12;1665339;85;26592;-74
2021/05/11 09:25:23;;;;;;;8.63;3.17;;;;;;;23.72;41.83;100162.65;1660477;85;25748;-72
2021/05/11 09:27:55;;;;;;;9.55;3.30;;;;;;;23.84;41.21;100160.58;1661033;85;25737;-72
2021/05/11 09:32:52;;;;;;;13.80;3.17;;;;;;;23.98;40.72;100163.63;1660436;85;26698;-73
2021/05/11 09:45:02;;;;;;;7.45;2.50;;;;;;;24.05;40.30;100160.17;1660448;85;25795;-73
2021/05/11 10:36:57;;;;;;;16.80;3.15;;;;;;;25.83;37.20;100107.20;1662866;85;25861;-74
2021/05/11 10:42:04;;;;;;;22.77;3.50;;;;;;;25.87;36.33;100107.77;1650226;85;25880;-73
2021/05/11 10:47:01;;;;;;;19.95;3.27;;;;;;;25.80;35.10;100109.88;1649031;85;26021;-74
2021/05/11 10:49:37;;;;;;;21.87;3.45;;;;;;;25.82;36.47;100109.09;1631854;86;25561;-74
2021/05/11 10:55:10;;;;;;;9.00;2.92;;;;;;;25.91;35.64;100106.13;1662603;85;25923;-75
2021/05/11 10:57:50;;;;;;;21.40;3.58;;;;;;;25.98;35.73;100101.84;1663916;85;25922;-74
2021/05/11 11:00:28;;;;;;;14.65;2.85;;;;;;;26.04;35.82;100103.41;1672933;84;25949;-74
2021/05/11 11:03:17;;;;;;;7.00;2.42;;;;;;;26.10;35.33;100093.48;1664791;84;25560;-74
2021/05/11 11:05:55;;;;;;;11.65;3.22;;;;;;;26.12;35.28;100096.14;1649738;85;25715;-74
2021/05/11 11:08:35;;;;;;;20.23;2.75;;;;;;;26.18;35.33;100096.92;1665031;85;25739;-73
2021/05/11 11:11:13;;;;;;;10.08;2.37;;;;;;;26.25;35.75;100093.95;1663220;85;25829;-74
2021/05/11 11:13:52;;;;;;;9.40;2.87;;;;;;;26.36;36.26;100092.82;1662635;85;25755;-73
2021/05/11 11:16:20;;;;;;;9.63;3.00;;;;;;;26.48;35.85;100089.80;1661510;85;25765;-73
2021/05/11 11:18:48;;;;;;;7.20;2.42;;;;;;;26.48;35.31;100080.41;1659914;85;26681;-73
2021/05/11 11:23:54;;;;;;;15.60;2.58;;;;;;;26.54;34.74;100077.44;1660043;84;25779;-74
2021/05/11 11:26:31;;;;;;;24.05;3.12;;;;;;;26.58;35.39;100068.32;1661058;85;25832;-74
2021/05/11 11:29:10;;;;;;;11.10;2.58;;;;;;;26.63;35.31;100071.48;1661370;85;25840;-74
2021/05/11 11:31:42;;;;;;;10.32;2.62;;;;;;;26.67;35.16;100064.50;1662462;85;26589;-73
2021/05/11 11:34:35;;;;;;;16.02;2.70;;;;;;;26.82;35.94;100056.87;1664498;85;25817;-73
2021/05/11 11:37:12;;;;;;;10.20;3.00;;;;;;;26.95;34.71;100070.44;1638385;86;25351;-73
2021/05/11 11:39:51;;;;;;;11.10;2.70;;;;;;;26.96;34.76;100064.55;1647780;85;44709;-74
2021/05/11 11:42:31;;;;;;;13.93;3.10;;;;;;;27.03;34.92;100060.98;1665194;85;25704;-74
2021/05/11 11:45:01;;;;;;;17.15;2.72;;;;;;;27.07;34.92;100064.72;1658211;85;25732;-72
2021/05/11 11:47:29;;;;;;;12.90;3.30;;;;;;;27.12;34.97;100061.17;1661097;85;25853;-74
2021/05/11 11:50:00;;;;;;;18.65;2.90;;;;;;;27.23;35.29;100056.81;1661932;84;25776;-74
2021/05/11 11:53:08;;;;;;;12.98;2.60;;;;;;;27.32;34.63;100064.25;1662631;85;25710;-74
2021/05/11 12:00:24;;;;;;;13.53;2.50;;;;;;;27.29;34.03;100052.20;1664646;85;25374;-74
2021/05/11 12:03:06;;;;;;;14.18;2.42;;;;;;;27.18;34.62;100057.41;1652324;85;25680;-74
2021/05/11 12:05:45;;;;;;;6.85;2.30;;;;;;;27.26;34.61;100053.31;1657721;85;25396;-74
2021/05/11 12:10:50;;;;;;;12.05;2.87;;;;;;;27.40;34.63;100043.50;1664654;85;25849;-73
2021/05/11 12:13:31;;;;;;;19.07;3.12;;;;;;;27.43;34.51;100035.67;1663061;85;25899;-74
2021/05/11 12:16:15;;;;;;;21.07;2.52;;;;;;;27.40;34.10;100040.81;1657184;85;26754;-74
2021/05/11 12:19:09;;;;;;;19.98;2.80;;;;;;;27.41;34.64;100036.48;1663742;85;25943;-74
2021/05/11 12:21:52;;;;;;;12.25;2.42;;;;;;;27.49;34.84;100036.95;1664749;85;25479;-74
2021/05/11 12:24:22;;;;;;;12.70;2.77;;;;;;;27.57;34.54;100030.41;1662972;85;25645;-74
2021/05/11 12:26:47;;;;;;;17.92;2.70;;;;;;;27.59;34.54;100030.14;1662118;85;25735;-74
2021/05/11 12:29:17;;;;;;;11.10;2.40;;;;;;;27.56;34.41;100022.11;1655019;85;25772;-74
2021/05/11 12:31:51;;;;;;;6.12;1.87;;;;;;;27.60;34.60;100023.66;1652542;85;25467;-74
2021/05/11 12:34:24;;;;;;;10.35;2.25;;;;;;;27.68;34.89;100013.08;1654092;85;25788;-75
2021/05/11 12:36:58;;;;;;;14.60;2.92;;;;;;;27.79;34.36;100016.99;1663798;85;25603;-75
2021/05/11 12:39:47;;;;;;;8.98;2.42;;;;;;;27.84;34.20;100012.94;1636394;86;26116;-74
2021/05/11 12:42:22;;;;;;;13.72;2.15;;;;;;;27.90;34.28;100009.08;1663256;85;25839;-74
2021/05/11 12:45:14;;;;;;;12.50;2.58;;;;;;;28.01;33.56;100013.23;1646624;85;25858;-74
2021/05/11 12:47:52;;;;;;;11.20;2.47;;;;;;;27.94;33.82;100022.20;1663871;85;25785;-74
2021/05/11 12:50:28;;;;;;;14.03;2.72;;;;;;;27.94;33.13;100014.15;1663269;85;25663;-74
2021/05/11 12:52:59;;;;;;;14.80;2.22;;;;;;;27.92;33.77;100019.00;1663437;85;25428;-74
2021/05/11 12:55:57;;;;;;;7.78;2.33;;;;;;;27.86;33.37;100011.56;1667266;84;25835;-74
2021/05/11 12:58:24;;;;;;;18.23;2.33;;;;;;;27.84;33.74;100011.59;1661076;85;25895;-74
2021/05/11 13:00:46;;;;;;;8.18;2.30;;;;;;;27.85;33.35;100006.45;1666176;84;25944;-74
2021/05/11 13:03:33;;;;;;;14.28;2.55;;;;;;;27.88;34.11;100009.91;1664036;84;25919;-73
2021/05/11 13:27:27;;;;;;;8.50;2.52;;;;;;;28.28;33.17;99972.80;1653261;85;25814;-73
2021/05/11 13:32:38;;;;;;;9.08;2.33;;;;;;;28.38;33.29;99982.61;1653781;85;25761;-74
2021/05/11 13:34:49;;;;;;;14.13;2.27;;;;;;;28.42;33.73;99980.92;1651517;85;26494;-73
2021/05/11 13:37:14;;;;;;;12.03;2.75;;;;;;;28.42;32.38;99980.37;1599752;88;25431;-72
2021/05/11 13:39:40;;;;;;;13.38;2.67;;;;;;;28.30;32.53;99982.17;1628681;85;25813;-73
2021/05/11 13:42:06;;;;;;;16.85;2.45;;;;;;;28.30;32.69;99978.69;1671071;84;25966;-73
2021/05/11 13:44:32;;;;;;;10.25;2.67;;;;;;;28.30;32.49;99977.35;1652863;85;25355;-73
2021/05/11 13:46:57;;;;;;;13.75;2.42;;;;;;;28.32;33.19;99973.28;1652550;85;25831;-74
2021/05/11 13:49:23;;;;;;;7.80;2.75;;;;;;;28.43;33.16;99969.91;1671888;84;26672;-73
2021/05/11 13:51:49;;;;;;;12.65;2.80;;;;;;;28.53;33.41;99972.41;1653575;85;25418;-73
2021/05/11 13:54:17;;;;;;;18.05;2.72;;;;;;;28.61;32.55;99972.29;1643194;84;26778;-73
2021/05/11 13:57:01;;;;;;;26.82;3.42;;;;;;;28.55;32.31;99966.20;1652983;85;25384;-73
2021/05/11 14:04:30;;;;;;;16.85;2.30;;;;;;;28.52;32.60;99970.83;1653487;84;25874;-74
2021/05/11 14:06:56;;;;;;;11.15;2.72;;;;;;;28.53;32.47;99964.34;1669266;84;26644;-73
2021/05/11 14:09:22;;;;;;;15.35;3.00;;;;;;;28.53;32.86;99963.00;1625380;86;25367;-73
2021/05/11 14:11:48;;;;;;;9.40;2.33;;;;;;;28.63;32.92;99958.02;1624318;86;25813;-73
2021/05/11 14:14:15;;;;;;;11.28;2.87;;;;;;;28.69;32.53;99959.52;1643216;85;25832;-73
2021/05/11 14:16:43;;;;;;;15.95;3.55;;;;;;;28.77;32.67;99958.04;1671825;84;25848;-73
2021/05/11 14:19:11;;;;;;;18.45;3.35;;;;;;;28.84;31.71;99955.77;1653219;85;25904;-74
2021/05/11 14:21:37;;;;;;;14.58;3.17;;;;;;;28.79;32.44;99956.41;1640274;85;25395;-75
2021/05/11 14:24:04;;;;;;;12.53;3.35;;;;;;;28.85;31.76;99953.31;1643349;86;25897;-75
2021/05/11 14:26:31;;;;;;;10.43;2.22;;;;;;;28.83;31.78;99952.02;1671850;84;25781;-75
2021/05/11 14:28:57;;;;;;;14.28;2.47;;;;;;;28.81;32.01;99948.81;1626594;86;25446;-74
2021/05/11 14:31:26;;;;;;;12.63;2.60;;;;;;;28.77;31.93;99941.89;1608145;86;25754;-74
2021/05/11 14:33:51;;;;;;;16.32;2.47;;;;;;;28.77;31.54;99945.94;1649485;85;25826;-74
2021/05/11 14:36:18;;;;;;;12.85;2.58;;;;;;;28.77;31.93;99943.23;1670096;84;25414;-74
2021/05/11 14:38:43;;;;;;;16.82;2.37;;;;;;;28.81;31.79;99944.78;1602966;87;26482;-74
2021/05/11 14:41:10;;;;;;;12.68;3.05;;;;;;;28.86;32.24;99945.48;1652859;86;25906;-73
2021/05/11 14:43:43;;;;;;;12.13;2.30;;;;;;;28.85;32.32;99941.21;1672356;84;25631;-73
2021/05/11 14:46:10;;;;;;;10.25;2.42;;;;;;;28.78;31.75;99940.79;1654166;85;25303;-75
2021/05/11 14:48:37;;;;;;;16.48;2.40;;;;;;;28.74;32.26;99937.11;1653761;85;25991;-73
2021/05/11 14:51:05;;;;;;;6.62;2.33;;;;;;;28.81;32.09;99933.50;1654859;85;25402;-73
2021/05/11 14:53:31;;;;;;;6.37;1.90;;;;;;;28.81;32.13;99935.36;1654134;84;25849;-74
2021/05/11 14:55:58;;;;;;;9.50;2.00;;;;;;;28.84;31.19;99926.17;1670811;84;25725;-75
2021/05/11 14:58:25;;;;;;;12.85;2.45;;;;;;;28.83;31.36;99929.15;1653456;85;26438;-75
2021/05/11 15:00:51;;;;;;;14.10;2.45;;;;;;;28.81;31.43;99924.08;1653329;85;25909;-75
2021/05/11 15:03:16;;;;;;;10.72;2.08;;;;;;;28.76;31.32;99922.27;1672054;84;25739;-75
2021/05/11 15:05:42;;;;;;;8.05;2.12;;;;;;;28.74;31.08;99919.63;1625308;86;25363;-75
2021/05/11 15:08:09;;;;;;;13.90;2.40;;;;;;;28.74;31.01;99920.97;1624878;85;25890;-74
2021/05/11 15:10:35;;;;;;;12.80;2.15;;;;;;;28.74;31.57;99920.97;1623411;87;25837;-75
2021/05/11 15:13:02;;;;;;;11.70;2.35;;;;;;;28.75;31.72;99914.48;1654680;85;25685;-75
2021/05/11 15:15:29;;;;;;;6.28;2.10;;;;;;;28.79;31.25;99913.36;1654217;85;25782;-74
2021/05/11 15:20:22;;;;;;;11.15;2.08;;;;;;;28.76;31.15;99906.69;1652993;85;25753;-75
2021/05/11 15:22:52;;;;;;;5.45;1.80;;;;;;;28.72;31.10;99909.15;1653685;85;25294;-73
2021/05/11 15:25:15;;;;;;;12.07;1.90;;;;;;;28.69;31.20;99904.92;1653150;85;25711;-73
2021/05/11 15:27:41;;;;;;;13.98;1.98;;;;;;;28.70;31.07;99911.36;1654408;84;25786;-73
2021/05/11 15:30:08;;;;;;;9.83;1.85;;;;;;;28.71;30.90;99897.36;1653787;85;25893;-73
2021/05/11 15:32:44;;;;;;;9.78;2.05;;;;;;;28.73;31.50;99900.56;1669640;84;25846;-74
2021/05/11 15:35:19;;;;;;;12.93;2.40;;;;;;;28.68;31.15;99901.99;1653252;85;25807;-74
2021/05/11 15:37:49;;;;;;;15.75;2.40;;;;;;;28.58;30.89;99902.17;1653022;85;25870;-74
2021/05/11 15:40:16;;;;;;;9.83;1.70;;;;;;;28.49;30.84;99898.02;1654044;85;25307;-74
2021/05/11 15:42:42;;;;;;;8.48;1.65;;;;;;;28.53;30.83;99890.95;1670267;84;25387;-74